Time;durP1;ratioP1;P1;durP2;ratioP2;P2;SDS_P1;SDS_P2;PMS_P1;PMS_P2;Temp;Humidity;BMP_temperature;BMP_pressure;BME280_temperature;BME280_humidity;BME280_pressure;Samples;Min_cycle;Max_cycle;Signal;HPM_P1;HPM_P2
2023/10/27 00:02:10;;;;;;;2.90;1.37;;;12.90;88.50;;;;;;5033725;28;20565;-48
2023/10/27 00:04:40;;;;;;;3.00;1.73;;;12.90;88.40;;;;;;5024320;28;20539;-49
2023/10/27 00:07:08;;;;;;;2.50;1.50;;;12.90;88.40;;;;;;5038007;28;20856;-50
2023/10/27 00:09:37;;;;;;;1.60;1.10;;;12.90;88.50;;;;;;5016415;28;20455;-50
2023/10/27 00:12:06;;;;;;;3.30;1.17;;;12.90;88.60;;;;;;5036711;28;20510;-51
2023/10/27 00:14:35;;;;;;;3.17;1.33;;;12.90;88.70;;;;;;5027085;28;20805;-49
2023/10/27 00:17:03;;;;;;;2.77;1.50;;;12.90;88.70;;;;;;5022158;28;20443;-51
2023/10/27 00:19:31;;;;;;;2.50;1.40;;;12.90;88.80;;;;;;5034598;28;20489;-51
2023/10/27 00:22:01;;;;;;;1.83;1.27;;;12.90;88.80;;;;;;5023958;28;20469;-48
2023/10/27 00:24:30;;;;;;;3.17;1.33;;;12.90;88.90;;;;;;5025846;28;20470;-51
2023/10/27 00:26:58;;;;;;;1.83;1.37;;;12.90;88.90;;;;;;4998834;28;20456;-51
2023/10/27 00:29:27;;;;;;;1.77;1.47;;;12.90;88.90;;;;;;5044241;28;20434;-51
2023/10/27 00:31:55;;;;;;;3.57;2.10;;;12.90;88.90;;;;;;5043232;28;20820;-50
2023/10/27 00:34:23;;;;;;;5.10;1.20;;;12.90;88.90;;;;;;5024103;28;20503;-51
2023/10/27 00:36:52;;;;;;;3.83;1.73;;;12.90;88.90;;;;;;5026166;28;20715;-51
2023/10/27 00:39:21;;;;;;;3.80;1.27;;;12.90;88.90;;;;;;5021012;28;20508;-51
2023/10/27 00:41:50;;;;;;;2.93;1.33;;;12.90;88.90;;;;;;5046141;28;21012;-49
2023/10/27 00:44:18;;;;;;;2.27;1.10;;;12.90;88.90;;;;;;5024045;28;20519;-50
2023/10/27 00:46:46;;;;;;;3.40;1.10;;;12.90;88.90;;;;;;5023809;28;20483;-51
2023/10/27 00:49:15;;;;;;;2.00;1.30;;;12.90;88.80;;;;;;5037042;28;20459;-51
2023/10/27 00:51:46;;;;;;;3.17;1.30;;;12.90;88.80;;;;;;5026358;28;20510;-51
2023/10/27 00:54:17;;;;;;;1.63;1.00;;;12.90;88.70;;;;;;5035691;28;20528;-49
2023/10/27 00:56:49;;;;;;;3.23;1.50;;;12.90;88.70;;;;;;5021652;28;20468;-51
2023/10/27 00:59:18;;;;;;;2.80;1.33;;;12.90;88.80;;;;;;5043194;28;20493;-49
2023/10/27 01:01:46;;;;;;;1.30;1.10;;;12.90;88.80;;;;;;5026003;28;20447;-51
2023/10/27 01:04:15;;;;;;;2.17;1.30;;;12.90;88.90;;;;;;5038776;28;20827;-52
2023/10/27 01:06:44;;;;;;;1.93;1.43;;;12.90;88.90;;;;;;5026550;28;20447;-51
2023/10/27 01:09:13;;;;;;;3.90;1.53;;;12.90;88.90;;;;;;5015902;28;20446;-49
2023/10/27 01:11:41;;;;;;;2.33;1.17;;;12.90;88.90;;;;;;5022846;28;20467;-51
2023/10/27 01:14:11;;;;;;;3.43;1.17;;;12.90;89.00;;;;;;5021756;28;20502;-49
2023/10/27 01:16:39;;;;;;;2.60;1.37;;;12.90;88.90;;;;;;5022076;28;20446;-51
2023/10/27 01:19:07;;;;;;;3.90;1.60;;;12.90;89.00;;;;;;5026614;28;20419;-50
2023/10/27 01:21:36;;;;;;;3.77;1.30;;;12.80;88.90;;;;;;5026063;28;20517;-51
2023/10/27 01:24:07;;;;;;;1.53;1.10;;;12.80;88.90;;;;;;5020633;28;20991;-51
2023/10/27 01:26:36;;;;;;;1.73;1.00;;;12.90;88.90;;;;;;5033444;28;21020;-51
2023/10/27 01:29:04;;;;;;;1.40;1.10;;;12.90;88.90;;;;;;5026514;28;20441;-51
2023/10/27 01:31:32;;;;;;;3.67;1.73;;;12.90;88.80;;;;;;5019860;28;21023;-51
2023/10/27 01:34:00;;;;;;;4.63;1.37;;;12.90;88.90;;;;;;5021612;28;20481;-51
2023/10/27 01:36:29;;;;;;;1.57;0.87;;;12.90;88.90;;;;;;5023319;28;20463;-51
2023/10/27 01:38:57;;;;;;;4.87;1.60;;;12.90;89.00;;;;;;5018836;28;20448;-51
2023/10/27 01:41:29;;;;;;;2.30;1.20;;;12.80;89.00;;;;;;5022749;28;20459;-51
2023/10/27 01:43:57;;;;;;;1.80;1.30;;;12.80;89.10;;;;;;5026266;28;20549;-52
2023/10/27 01:46:25;;;;;;;2.77;1.47;;;12.80;89.30;;;;;;5024352;28;20565;-52
2023/10/27 01:48:54;;;;;;;3.20;1.67;;;12.80;90.10;;;;;;5022953;28;20457;-51
2023/10/27 01:51:23;;;;;;;2.77;1.37;;;12.80;89.40;;;;;;5007919;28;20433;-51
2023/10/27 01:53:51;;;;;;;4.80;1.50;;;12.80;89.50;;;;;;5021841;28;20435;-51
2023/10/27 01:56:20;;;;;;;4.20;1.40;;;12.80;89.60;;;;;;5024815;28;20455;-50
2023/10/27 01:58:50;;;;;;;4.53;1.50;;;12.80;89.60;;;;;;5025579;28;20871;-51
2023/10/27 02:01:19;;;;;;;2.00;1.37;;;12.80;89.70;;;;;;5021734;28;20518;-49
2023/10/27 02:03:48;;;;;;;3.77;1.70;;;12.80;89.90;;;;;;5024918;28;20496;-51
2023/10/27 02:06:23;;;;;;;3.70;1.33;;;12.80;90.00;;;;;;5016495;28;20536;-52
2023/10/27 02:08:51;;;;;;;3.27;1.33;;;12.80;89.90;;;;;;5015986;28;20444;-49
2023/10/27 02:11:21;;;;;;;2.47;1.27;;;12.80;89.90;;;;;;5027538;28;20493;-52
2023/10/27 02:13:51;;;;;;;3.33;1.50;;;12.80;90.00;;;;;;5026430;28;20920;-52
2023/10/27 02:16:19;;;;;;;1.87;1.30;;;12.80;90.00;;;;;;5020277;28;20464;-50
2023/10/27 02:18:48;;;;;;;6.70;1.57;;;12.80;89.90;;;;;;5019529;28;20795;-52
2023/10/27 02:21:16;;;;;;;3.60;1.30;;;12.80;89.80;;;;;;5010044;28;20518;-51
2023/10/27 02:23:45;;;;;;;3.23;1.27;;;12.80;89.70;;;;;;5025062;28;20464;-50
2023/10/27 02:26:13;;;;;;;1.37;0.80;;;12.80;89.70;;;;;;5024200;28;20475;-50
2023/10/27 02:28:42;;;;;;;2.10;1.30;;;12.80;89.60;;;;;;5045456;28;20947;-50
2023/10/27 02:31:11;;;;;;;5.33;1.50;;;12.80;89.70;;;;;;5029505;28;20437;-48
2023/10/27 02:33:40;;;;;;;2.40;1.13;;;12.80;89.90;;;;;;5021530;28;20853;-49
2023/10/27 02:36:08;;;;;;;5.43;1.70;;;12.80;89.70;;;;;;5030739;28;21148;-49
2023/10/27 02:38:36;;;;;;;2.23;1.90;;;12.80;89.70;;;;;;5024846;28;20849;-51
2023/10/27 02:41:09;;;;;;;1.83;1.13;;;12.80;89.80;;;;;;5034761;28;20948;-48
2023/10/27 02:43:38;;;;;;;3.23;1.50;;;12.80;89.60;;;;;;5031776;28;20458;-50
2023/10/27 02:46:07;;;;;;;3.13;1.10;;;12.80;89.40;;;;;;5029346;28;20465;-50
2023/10/27 02:48:37;;;;;;;1.57;1.10;;;12.80;89.80;;;;;;5048942;28;20459;-49
2023/10/27 02:51:05;;;;;;;2.23;1.00;;;12.80;89.80;;;;;;5055291;28;20497;-51
2023/10/27 02:53:34;;;;;;;1.80;1.30;;;12.80;89.60;;;;;;5040907;28;21005;-50
2023/10/27 02:56:07;;;;;;;1.97;1.20;;;12.80;89.60;;;;;;5031604;28;20528;-49
2023/10/27 02:58:35;;;;;;;5.33;1.40;;;12.80;89.90;;;;;;5026410;28;20432;-50
2023/10/27 03:01:08;;;;;;;3.40;2.17;;;12.80;89.80;;;;;;5032996;28;20542;-50
2023/10/27 03:03:38;;;;;;;2.43;1.00;;;12.80;90.00;;;;;;5029345;28;20470;-50
2023/10/27 03:06:06;;;;;;;1.57;1.07;;;12.80;90.00;;;;;;5021447;28;20479;-49
2023/10/27 03:08:35;;;;;;;2.00;1.40;;;12.80;90.00;;;;;;5042593;28;20454;-51
2023/10/27 03:11:04;;;;;;;2.53;1.20;;;12.80;90.00;;;;;;5051320;28;20961;-50
2023/10/27 03:13:32;;;;;;;5.63;2.07;;;12.70;90.10;;;;;;5029936;28;20521;-49
2023/10/27 03:16:01;;;;;;;3.03;1.40;;;12.70;90.20;;;;;;5028122;28;20974;-51
2023/10/27 03:18:30;;;;;;;2.63;1.37;;;12.70;90.10;;;;;;5026267;28;21048;-48
2023/10/27 03:21:03;;;;;;;5.00;1.70;;;12.70;90.10;;;;;;5031110;28;20824;-51
2023/10/27 03:23:32;;;;;;;2.67;1.43;;;12.70;90.20;;;;;;5036685;28;20466;-49
2023/10/27 03:26:00;;;;;;;2.00;1.30;;;12.70;90.30;;;;;;5011285;28;20696;-51
2023/10/27 03:28:29;;;;;;;3.13;1.30;;;12.70;90.20;;;;;;5021538;28;20439;-49
2023/10/27 03:30:57;;;;;;;5.73;1.50;;;12.70;90.20;;;;;;5014849;28;20817;-50
2023/10/27 03:33:25;;;;;;;1.90;1.00;;;12.70;90.30;;;;;;5041454;28;20430;-51
2023/10/27 03:35:54;;;;;;;4.20;1.93;;;12.70;90.40;;;;;;5045249;28;20466;-50
2023/10/27 03:38:23;;;;;;;3.10;1.20;;;12.70;90.30;;;;;;5023239;28;20469;-50
2023/10/27 03:40:53;;;;;;;5.07;1.60;;;12.70;90.20;;;;;;5022997;28;20934;-48
2023/10/27 03:43:22;;;;;;;3.00;1.43;;;12.70;90.30;;;;;;5019527;28;20460;-50
2023/10/27 03:45:51;;;;;;;3.10;1.50;;;12.70;90.40;;;;;;5033091;28;20840;-49
2023/10/27 03:48:19;;;;;;;1.93;1.07;;;12.70;90.40;;;;;;5044092;28;20455;-50
2023/10/27 03:50:48;;;;;;;2.30;1.10;;;12.70;90.40;;;;;;5042716;28;20937;-52
2023/10/27 03:53:17;;;;;;;3.90;1.10;;;12.70;90.30;;;;;;5023072;28;20563;-48
2023/10/27 03:55:53;;;;;;;1.53;1.20;;;12.70;90.50;;;;;;5019559;28;20530;-48
2023/10/27 03:58:22;;;;;;;3.30;1.30;;;12.70;90.40;;;;;;5037509;28;20478;-50
2023/10/27 04:01:09;;;;;;;3.63;1.37;;;12.70;90.30;;;;;;5035703;28;20426;-51
2023/10/27 04:03:37;;;;;;;2.47;1.30;;;12.70;90.50;;;;;;5045028;28;20962;-50
2023/10/27 04:06:06;;;;;;;2.83;1.10;;;12.70;90.60;;;;;;5013403;28;20463;-48
2023/10/27 04:08:34;;;;;;;2.00;1.23;;;12.70;90.60;;;;;;5006285;28;20444;-49
2023/10/27 04:11:05;;;;;;;3.00;1.30;;;12.70;90.70;;;;;;5008449;28;20444;-50
2023/10/27 04:13:34;;;;;;;2.47;1.00;;;12.60;90.80;;;;;;5021698;28;20976;-50
2023/10/27 04:16:02;;;;;;;2.50;1.23;;;12.60;90.80;;;;;;5008469;28;20595;-50
2023/10/27 04:18:31;;;;;;;2.60;1.33;;;12.60;90.70;;;;;;5005199;28;21008;-50
2023/10/27 04:20:59;;;;;;;2.17;1.47;;;12.60;90.90;;;;;;5008421;28;20963;-50
2023/10/27 04:23:27;;;;;;;2.13;1.00;;;12.60;91.00;;;;;;5004757;28;20444;-51
2023/10/27 04:25:56;;;;;;;4.40;1.47;;;12.60;90.80;;;;;;5023906;28;20567;-50
2023/10/27 04:28:25;;;;;;;2.00;0.80;;;12.60;90.90;;;;;;5019347;28;20531;-50
2023/10/27 04:30:54;;;;;;;1.90;1.00;;;12.60;90.80;;;;;;5016979;28;20460;-51
2023/10/27 04:33:22;;;;;;;4.30;1.10;;;12.60;90.70;;;;;;5009884;28;20471;-50
2023/10/27 04:35:51;;;;;;;2.20;1.20;;;12.60;90.90;;;;;;5009366;28;20620;-51
2023/10/27 04:38:19;;;;;;;2.00;1.10;;;12.60;91.00;;;;;;5021191;28;20473;-50
2023/10/27 04:40:48;;;;;;;3.03;1.30;;;12.60;91.00;;;;;;5008914;28;20428;-50
2023/10/27 04:43:16;;;;;;;2.13;0.80;;;12.60;91.00;;;;;;5006463;28;21060;-50
2023/10/27 04:45:47;;;;;;;1.77;1.20;;;12.60;90.90;;;;;;5008748;28;20955;-50
2023/10/27 04:48:16;;;;;;;2.20;1.60;;;12.60;90.90;;;;;;5007622;28;20485;-51
2023/10/27 04:50:44;;;;;;;2.00;1.23;;;12.60;91.00;;;;;;5020970;28;20457;-49
2023/10/27 04:53:12;;;;;;;2.13;1.00;;;12.60;91.00;;;;;;5000044;28;20563;-51
2023/10/27 04:55:41;;;;;;;3.37;2.33;;;12.60;91.10;;;;;;5006445;28;20494;-50
2023/10/27 04:58:10;;;;;;;1.73;1.13;;;12.60;91.10;;;;;;5001689;28;20889;-51
2023/10/27 05:00:38;;;;;;;3.43;1.40;;;12.60;91.00;;;;;;5008308;28;20497;-49
2023/10/27 05:03:12;;;;;;;5.30;2.03;;;12.60;91.10;;;;;;5025035;28;20472;-50
2023/10/27 05:05:40;;;;;;;3.40;1.53;;;12.60;91.20;;;;;;5006954;28;20637;-50
2023/10/27 05:08:08;;;;;;;3.03;1.57;;;12.60;91.30;;;;;;5005689;28;20951;-51
2023/10/27 05:10:40;;;;;;;3.83;1.77;;;12.60;91.10;;;;;;5007199;28;20424;-51
2023/10/27 05:13:09;;;;;;;4.10;1.30;;;12.60;91.20;;;;;;5024619;28;20538;-51
2023/10/27 05:15:38;;;;;;;1.87;1.13;;;12.60;91.10;;;;;;5003320;28;22487;-50
2023/10/27 05:18:06;;;;;;;2.50;1.27;;;12.60;91.00;;;;;;5005181;28;20857;-50
2023/10/27 05:20:39;;;;;;;3.47;1.47;;;12.60;90.90;;;;;;5006144;28;20453;-51
2023/10/27 05:23:07;;;;;;;6.63;2.00;;;12.60;91.00;;;;;;5007925;28;20480;-51
2023/10/27 05:25:36;;;;;;;2.13;1.30;;;12.60;91.20;;;;;;5024391;28;20472;-51
2023/10/27 05:28:05;;;;;;;1.60;0.87;;;12.60;91.00;;;;;;5026089;28;20563;-51
2023/10/27 05:30:35;;;;;;;2.77;1.57;;;12.60;90.90;;;;;;5006349;28;20436;-51
2023/10/27 05:33:03;;;;;;;3.27;1.70;;;12.60;91.10;;;;;;5006006;28;20504;-50
2023/10/27 05:35:32;;;;;;;2.10;1.40;;;12.60;91.10;;;;;;5020006;28;20914;-51
2023/10/27 05:38:01;;;;;;;2.37;1.40;;;12.60;91.00;;;;;;4993336;28;20596;-49
2023/10/27 05:40:31;;;;;;;2.60;1.80;;;12.60;91.00;;;;;;5010606;28;20534;-50
2023/10/27 05:43:00;;;;;;;3.00;1.30;;;12.60;91.30;;;;;;5020367;28;20464;-51
2023/10/27 05:45:29;;;;;;;1.87;1.10;;;12.60;91.20;;;;;;5009386;28;20481;-51
2023/10/27 05:47:57;;;;;;;4.10;1.60;;;12.60;91.30;;;;;;5004852;28;20477;-50
2023/10/27 05:50:25;;;;;;;2.90;1.30;;;12.60;91.40;;;;;;5006570;28;20930;-52
2023/10/27 05:52:54;;;;;;;3.83;1.53;;;12.60;91.50;;;;;;5003632;28;20498;-50
2023/10/27 05:55:24;;;;;;;3.00;1.27;;;12.60;91.40;;;;;;5023378;28;20534;-50
2023/10/27 05:57:53;;;;;;;4.20;1.97;;;12.60;91.30;;;;;;5028131;28;21027;-49
2023/10/27 06:00:22;;;;;;;2.20;1.13;;;12.60;91.40;;;;;;5020837;28;20806;-51
2023/10/27 06:02:52;;;;;;;3.57;1.30;;;12.60;91.40;;;;;;5009767;28;20478;-51
2023/10/27 06:05:22;;;;;;;2.10;1.23;;;12.60;91.20;;;;;;5031727;28;20908;-52
2023/10/27 06:07:50;;;;;;;1.97;1.20;;;12.60;91.20;;;;;;5008361;28;20850;-50
2023/10/27 06:10:19;;;;;;;2.43;1.20;;;12.60;91.30;;;;;;5017027;28;20833;-51
2023/10/27 06:12:48;;;;;;;2.00;1.20;;;12.60;91.60;;;;;;5009599;28;21067;-50
2023/10/27 06:15:17;;;;;;;2.00;1.47;;;12.60;91.20;;;;;;5029144;28;20455;-50
2023/10/27 06:17:45;;;;;;;3.60;1.33;;;12.60;91.00;;;;;;5021229;28;20547;-50
2023/10/27 06:20:13;;;;;;;1.90;1.10;;;12.60;91.30;;;;;;5027420;28;20884;-50
2023/10/27 06:22:46;;;;;;;1.70;1.27;;;12.60;90.80;;;;;;5012944;28;20478;-49
2023/10/27 06:25:14;;;;;;;1.87;1.00;;;12.60;91.10;;;;;;5025088;28;20478;-49
2023/10/27 06:27:43;;;;;;;1.30;0.90;;;12.60;90.90;;;;;;5010608;28;20471;-48
2023/10/27 06:30:13;;;;;;;3.23;1.07;;;12.60;90.60;;;;;;5010683;28;20442;-51
2023/10/27 06:32:42;;;;;;;2.20;0.90;;;12.60;90.50;;;;;;5026999;28;20481;-52
2023/10/27 06:35:11;;;;;;;2.60;0.97;;;12.60;90.30;;;;;;5029345;28;20890;-50
2023/10/27 06:37:40;;;;;;;1.87;1.37;;;12.60;90.40;;;;;;5024832;28;20463;-50
2023/10/27 06:40:10;;;;;;;3.93;1.40;;;12.60;90.30;;;;;;5013564;28;20543;-48
2023/10/27 06:42:39;;;;;;;1.40;1.00;;;12.60;90.50;;;;;;5028382;28;20698;-50
2023/10/27 06:45:09;;;;;;;2.27;1.60;;;12.60;90.50;;;;;;5029414;28;20540;-50
2023/10/27 06:47:40;;;;;;;1.83;1.10;;;12.60;90.50;;;;;;5010125;28;20473;-49
2023/10/27 06:50:12;;;;;;;2.73;1.50;;;12.60;90.70;;;;;;5027997;28;20486;-50
2023/10/27 06:52:40;;;;;;;2.73;1.40;;;12.60;90.60;;;;;;5018937;28;20841;-51
2023/10/27 06:55:09;;;;;;;2.13;1.37;;;12.60;91.00;;;;;;5036643;28;20861;-49
2023/10/27 06:57:37;;;;;;;1.23;0.80;;;12.60;90.40;;;;;;5009721;28;21011;-50
2023/10/27 07:00:07;;;;;;;1.40;0.90;;;12.60;90.50;;;;;;5007976;28;20456;-49
2023/10/27 07:02:36;;;;;;;1.60;1.00;;;12.60;90.50;;;;;;5028458;28;20468;-50
2023/10/27 07:05:25;;;;;;;2.87;1.20;;;12.60;90.30;;;;;;5012693;28;20513;-50
2023/10/27 07:07:54;;;;;;;1.90;1.03;;;12.60;90.60;;;;;;5022259;28;21076;-51
2023/10/27 07:10:22;;;;;;;1.70;1.07;;;12.60;90.40;;;;;;5030148;28;20463;-49
2023/10/27 07:12:51;;;;;;;1.10;0.80;;;12.60;90.60;;;;;;5035984;28;20969;-49
2023/10/27 07:15:19;;;;;;;1.30;0.70;;;12.60;90.40;;;;;;5035656;28;20452;-50
2023/10/27 07:17:48;;;;;;;2.33;0.80;;;12.60;90.70;;;;;;5030554;28;20506;-51
2023/10/27 07:20:17;;;;;;;1.57;0.77;;;12.60;90.60;;;;;;5030657;28;20619;-51
2023/10/27 07:22:47;;;;;;;1.83;0.70;;;12.60;90.60;;;;;;5018458;28;21037;-51
2023/10/27 07:25:16;;;;;;;1.10;0.67;;;12.60;90.50;;;;;;5027231;28;20508;-49
2023/10/27 07:27:45;;;;;;;1.70;0.83;;;12.60;90.50;;;;;;5034839;28;20456;-52
2023/10/27 07:30:14;;;;;;;1.93;0.93;;;12.60;90.60;;;;;;5039753;28;20743;-51
2023/10/27 07:32:43;;;;;;;1.47;0.90;;;12.60;90.50;;;;;;5013751;28;20545;-49
2023/10/27 07:35:12;;;;;;;2.40;0.90;;;12.60;90.50;;;;;;5026595;28;20458;-50
2023/10/27 07:37:40;;;;;;;2.40;1.00;;;12.60;90.50;;;;;;5032668;28;21285;-50
2023/10/27 07:40:11;;;;;;;2.03;0.97;;;12.60;90.60;;;;;;5035976;28;20466;-50
2023/10/27 07:42:39;;;;;;;1.17;0.67;;;12.60;90.40;;;;;;5040537;28;20926;-51
2023/10/27 07:45:08;;;;;;;1.40;0.80;;;12.60;90.50;;;;;;5019296;28;20471;-50
2023/10/27 07:47:36;;;;;;;1.10;0.50;;;12.60;90.40;;;;;;5026928;28;20470;-50
2023/10/27 07:50:06;;;;;;;1.40;0.73;;;12.60;90.40;;;;;;5023378;28;20730;-50
2023/10/27 07:52:35;;;;;;;1.97;0.80;;;12.60;90.40;;;;;;5017938;28;20472;-50
2023/10/27 07:55:06;;;;;;;3.03;0.77;;;12.60;90.60;;;;;;5035212;28;20812;-50
2023/10/27 07:57:36;;;;;;;1.93;0.80;;;12.60;90.60;;;;;;5024723;28;20466;-50
2023/10/27 08:00:09;;;;;;;1.03;0.60;;;12.60;90.60;;;;;;5017361;28;20477;-50
2023/10/27 08:02:38;;;;;;;1.80;1.10;;;12.60;91.00;;;;;;5035268;28;20462;-48
2023/10/27 08:05:07;;;;;;;1.23;0.70;;;12.60;90.60;;;;;;5038090;28;20458;-50
2023/10/27 08:07:36;;;;;;;1.13;0.63;;;12.60;90.60;;;;;;5004589;28;20540;-51
2023/10/27 08:10:07;;;;;;;1.57;0.90;;;12.60;90.70;;;;;;5009041;28;20511;-50
2023/10/27 08:12:39;;;;;;;1.73;0.53;;;12.60;90.60;;;;;;4994216;28;21075;-52
2023/10/27 08:15:07;;;;;;;2.27;0.93;;;12.60;90.60;;;;;;5041588;28;20461;-49
2023/10/27 08:17:37;;;;;;;1.67;0.90;;;12.60;90.50;;;;;;5024101;28;20464;-51
2023/10/27 08:20:06;;;;;;;1.87;0.77;;;12.60;90.60;;;;;;5020759;28;20562;-51
2023/10/27 08:22:35;;;;;;;2.40;0.80;;;12.60;90.60;;;;;;5004596;28;20475;-49
2023/10/27 08:25:03;;;;;;;2.47;1.30;;;12.60;90.50;;;;;;5008819;28;20585;-51
2023/10/27 08:27:31;;;;;;;1.30;0.60;;;12.60;90.70;;;;;;5022985;28;20931;-50
2023/10/27 08:30:02;;;;;;;1.67;0.67;;;12.60;90.70;;;;;;5007840;28;20428;-50
2023/10/27 08:32:30;;;;;;;1.37;0.60;;;12.60;90.70;;;;;;5005312;28;20464;-50
2023/10/27 08:34:58;;;;;;;1.20;0.90;;;12.60;90.50;;;;;;5007734;28;20491;-51
2023/10/27 08:37:27;;;;;;;1.60;1.10;;;12.60;90.60;;;;;;5003996;28;20563;-51
2023/10/27 08:39:55;;;;;;;1.40;0.70;;;12.60;90.60;;;;;;5006789;28;20535;-51
2023/10/27 08:42:23;;;;;;;1.30;0.63;;;12.60;90.80;;;;;;5010492;28;20547;-51
2023/10/27 08:44:51;;;;;;;1.10;0.60;;;12.50;90.70;;;;;;5009832;28;20467;-51
2023/10/27 08:47:21;;;;;;;1.13;0.70;;;12.60;90.60;;;;;;5024972;28;20849;-51
2023/10/27 08:49:49;;;;;;;0.90;0.50;;;12.60;90.60;;;;;;5009200;28;20944;-49
2023/10/27 08:52:18;;;;;;;1.40;0.83;;;12.60;90.70;;;;;;5024432;28;20555;-49
2023/10/27 08:54:46;;;;;;;1.10;0.73;;;12.60;90.70;;;;;;5003333;28;20476;-49
2023/10/27 08:57:16;;;;;;;1.23;0.70;;;12.60;90.80;;;;;;5006688;28;20554;-51
2023/10/27 08:59:44;;;;;;;1.63;0.87;;;12.60;90.90;;;;;;5024979;28;21011;-51
2023/10/27 09:02:16;;;;;;;1.23;0.80;;;12.50;90.80;;;;;;5002301;28;20479;-49
2023/10/27 09:04:46;;;;;;;1.40;0.77;;;12.60;91.00;;;;;;5025945;28;20445;-51
2023/10/27 09:07:15;;;;;;;1.77;0.90;;;12.50;91.00;;;;;;5036280;28;20463;-48
2023/10/27 09:09:43;;;;;;;1.47;0.90;;;12.60;91.10;;;;;;5040245;28;21098;-49
2023/10/27 09:12:12;;;;;;;2.00;0.77;;;12.50;91.00;;;;;;5040471;28;20466;-49
2023/10/27 09:14:41;;;;;;;1.60;0.90;;;12.50;90.90;;;;;;5019995;28;20479;-51
2023/10/27 09:17:12;;;;;;;1.20;0.80;;;12.50;91.10;;;;;;5039453;28;20471;-52
2023/10/27 09:19:41;;;;;;;1.50;0.83;;;12.50;91.10;;;;;;5021718;28;20427;-49
2023/10/27 09:22:20;;;;;;;1.43;0.90;;;12.60;90.80;;;;;;5023087;28;20463;-49
2023/10/27 09:25:13;;;;;;;1.20;0.80;;;12.60;91.00;;;;;;5024110;28;20455;-50
2023/10/27 09:27:45;;;;;;;1.60;1.10;;;12.50;91.20;;;;;;5024265;28;20509;-51
2023/10/27 09:30:25;;;;;;;1.97;1.00;;;12.50;91.10;;;;;;5024561;28;20520;-50
2023/10/27 09:32:53;;;;;;;2.00;1.00;;;12.60;91.10;;;;;;5033085;28;20935;-51
2023/10/27 09:35:22;;;;;;;1.30;0.70;;;12.60;91.10;;;;;;5040264;28;20514;-50
2023/10/27 09:37:55;;;;;;;2.03;0.93;;;12.60;91.20;;;;;;5021571;28;20476;-50
2023/10/27 09:40:23;;;;;;;1.40;0.80;;;12.60;91.20;;;;;;5024582;28;20509;-50
2023/10/27 09:42:54;;;;;;;1.63;0.70;;;12.60;91.00;;;;;;5024352;28;20473;-51
2023/10/27 09:45:27;;;;;;;1.30;0.70;;;12.60;90.90;;;;;;5022087;28;20483;-51
2023/10/27 09:48:03;;;;;;;2.07;1.10;;;12.60;90.90;;;;;;5025184;28;20992;-50
2023/10/27 09:50:32;;;;;;;1.40;0.93;;;12.60;91.00;;;;;;5043006;28;20431;-51
2023/10/27 09:53:02;;;;;;;1.90;0.77;;;12.60;90.80;;;;;;5038531;28;20619;-49
2023/10/27 09:55:34;;;;;;;1.70;1.07;;;12.60;91.10;;;;;;5038556;28;20444;-49
2023/10/27 09:58:03;;;;;;;5.50;1.80;;;12.60;91.20;;;;;;5025287;28;20465;-49
2023/10/27 10:00:32;;;;;;;3.97;1.57;;;12.60;91.10;;;;;;5044417;28;20449;-50
2023/10/27 10:03:02;;;;;;;5.50;2.23;;;12.70;92.20;;;;;;5022072;28;20486;-50
2023/10/27 10:06:08;;;;;;;6.45;1.83;;;12.80;93.60;;;;;;5021171;28;20474;-49
2023/10/27 10:08:38;;;;;;;5.47;1.77;;;12.80;93.10;;;;;;5020516;28;20235;-51
2023/10/27 10:11:14;;;;;;;6.33;1.77;;;12.80;91.80;;;;;;5043582;28;20518;-51
2023/10/27 10:13:44;;;;;;;4.50;1.63;;;12.80;91.60;;;;;;5038927;28;20432;-49
2023/10/27 10:16:13;;;;;;;3.07;1.90;;;12.80;91.90;;;;;;5019213;28;20525;-51
2023/10/27 10:18:51;;;;;;;3.23;1.40;;;12.70;91.70;;;;;;5038094;28;20523;-50
2023/10/27 10:21:35;;;;;;;5.73;1.70;;;12.70;91.70;;;;;;5024644;28;20427;-50
2023/10/27 10:24:10;;;;;;;3.33;1.37;;;12.70;91.30;;;;;;5019085;28;21044;-49
2023/10/27 10:27:04;;;;;;;3.90;1.43;;;12.70;91.30;;;;;;5042281;28;20470;-51
2023/10/27 10:29:35;;;;;;;2.73;1.30;;;12.70;91.30;;;;;;5036457;28;20441;-49
2023/10/27 10:32:33;;;;;;;2.23;1.03;;;12.70;91.40;;;;;;5022485;28;20450;-48
2023/10/27 10:35:26;;;;;;;2.30;1.27;;;12.70;91.20;;;;;;5042235;28;20462;-51
2023/10/27 10:37:54;;;;;;;3.93;1.20;;;12.70;91.30;;;;;;5020752;28;20603;-50
2023/10/27 10:40:27;;;;;;;6.77;1.63;;;12.70;91.50;;;;;;5024934;28;20428;-50
2023/10/27 10:43:19;;;;;;;6.90;1.50;;;12.70;91.40;;;;;;5021697;28;20474;-51
2023/10/27 10:45:50;;;;;;;2.53;1.30;;;12.70;91.40;;;;;;5023789;28;20534;-50
2023/10/27 10:48:19;;;;;;;3.20;1.30;;;12.70;91.10;;;;;;5037969;28;20482;-50
2023/10/27 10:50:53;;;;;;;3.60;1.73;;;12.70;91.20;;;;;;5031679;28;20434;-52
2023/10/27 10:53:24;;;;;;;4.80;1.10;;;12.70;91.20;;;;;;5023894;28;20478;-48
2023/10/27 10:56:00;;;;;;;2.20;1.10;;;12.70;91.10;;;;;;5021953;28;20460;-51
2023/10/27 10:58:30;;;;;;;1.50;0.93;;;12.70;91.00;;;;;;5039457;28;20549;-48
2023/10/27 11:01:00;;;;;;;1.60;0.90;;;12.70;90.70;;;;;;5029203;28;21007;-51
2023/10/27 11:03:31;;;;;;;2.50;1.10;;;12.70;90.80;;;;;;5026708;28;20565;-51
2023/10/27 11:06:02;;;;;;;2.80;1.20;;;12.70;90.90;;;;;;5024557;28;20478;-48
2023/10/27 11:08:34;;;;;;;3.57;1.47;;;12.70;91.10;;;;;;5024291;28;20482;-49
2023/10/27 11:11:07;;;;;;;2.50;1.03;;;12.70;91.10;;;;;;5038654;28;20468;-51
2023/10/27 11:13:41;;;;;;;3.53;1.53;;;12.70;91.20;;;;;;5047115;28;20437;-49
2023/10/27 11:16:17;;;;;;;3.37;1.30;;;12.70;91.60;;;;;;5024979;28;20553;-49
2023/10/27 11:18:46;;;;;;;2.97;1.30;;;12.70;91.30;;;;;;5027784;28;20428;-49
2023/10/27 11:21:16;;;;;;;3.23;1.30;;;12.70;91.40;;;;;;5025154;28;20438;-50
2023/10/27 11:23:45;;;;;;;2.33;1.03;;;12.70;91.50;;;;;;5022041;28;20447;-51
2023/10/27 11:26:16;;;;;;;2.23;1.27;;;12.70;91.50;;;;;;5027531;28;20501;-51
2023/10/27 11:28:46;;;;;;;4.17;1.10;;;12.70;91.50;;;;;;5024872;28;20797;-49
2023/10/27 11:31:26;;;;;;;3.20;1.63;;;12.70;91.20;;;;;;5025416;28;20814;-51
2023/10/27 11:33:59;;;;;;;3.13;1.20;;;12.70;91.60;;;;;;5027849;28;20438;-50
2023/10/27 11:36:28;;;;;;;2.97;2.00;;;12.70;91.20;;;;;;5028777;28;20502;-50
2023/10/27 11:38:57;;;;;;;1.50;0.87;;;12.70;90.80;;;;;;5047070;28;20525;-51
2023/10/27 11:41:26;;;;;;;3.30;0.97;;;12.70;91.00;;;;;;5047947;28;20459;-50
2023/10/27 11:43:54;;;;;;;2.57;1.23;;;12.70;91.00;;;;;;5024094;28;20427;-49
2023/10/27 11:46:23;;;;;;;2.30;1.30;;;12.70;91.10;;;;;;5025763;28;20645;-49
2023/10/27 11:48:51;;;;;;;1.67;0.80;;;12.70;91.70;;;;;;5038354;28;20479;-51
2023/10/27 11:51:19;;;;;;;2.60;1.10;;;12.70;91.60;;;;;;5028054;28;20430;-51
2023/10/27 11:53:48;;;;;;;2.77;1.27;;;12.70;91.40;;;;;;5041918;28;20471;-49
2023/10/27 11:56:15;;;;;;;2.37;1.27;;;12.70;91.80;;;;;;5025261;28;20462;-51
2023/10/27 11:58:45;;;;;;;3.13;1.10;;;12.70;91.40;;;;;;5023469;28;20441;-51
2023/10/27 12:01:13;;;;;;;2.83;1.20;;;12.70;91.00;;;;;;5025926;28;20598;-51
2023/10/27 12:03:42;;;;;;;1.97;1.10;;;12.70;90.90;;;;;;5016083;28;20450;-49
2023/10/27 12:06:10;;;;;;;3.40;1.00;;;12.70;90.80;;;;;;5023726;28;21176;-49
2023/10/27 12:08:38;;;;;;;1.60;1.00;;;12.70;91.20;;;;;;5038953;28;20554;-50
2023/10/27 12:11:06;;;;;;;3.00;1.40;;;12.70;90.90;;;;;;5030690;28;20421;-49
2023/10/27 12:13:35;;;;;;;2.53;0.90;;;12.70;91.50;;;;;;5022357;28;20436;-51
2023/10/27 12:16:06;;;;;;;3.47;1.30;;;12.70;91.10;;;;;;5033433;28;20723;-50
2023/10/27 12:18:34;;;;;;;1.50;0.80;;;12.70;91.20;;;;;;5020819;28;20476;-49
2023/10/27 12:21:03;;;;;;;1.20;0.60;;;12.70;90.90;;;;;;5027799;28;20432;-50
2023/10/27 12:23:32;;;;;;;1.60;0.83;;;12.70;90.80;;;;;;5020154;28;20716;-49
2023/10/27 12:26:01;;;;;;;2.53;1.53;;;12.70;90.80;;;;;;5040519;28;20466;-50
2023/10/27 12:28:29;;;;;;;1.63;1.20;;;12.70;91.20;;;;;;5022604;28;20516;-49
2023/10/27 12:31:00;;;;;;;3.67;1.30;;;12.70;91.30;;;;;;5017247;28;20427;-49
2023/10/27 12:33:30;;;;;;;1.87;1.10;;;12.70;91.30;;;;;;5041015;28;20447;-49
2023/10/27 12:36:05;;;;;;;1.80;1.00;;;12.70;91.40;;;;;;5021595;28;20440;-50
2023/10/27 12:38:34;;;;;;;2.40;1.40;;;12.70;91.20;;;;;;5012059;28;20477;-50
2023/10/27 12:41:04;;;;;;;2.00;1.17;;;12.70;91.20;;;;;;5019282;28;20439;-49
2023/10/27 12:43:32;;;;;;;2.73;1.20;;;12.70;91.10;;;;;;5022338;28;20510;-51
2023/10/27 12:46:03;;;;;;;1.60;1.00;;;12.70;91.30;;;;;;5040016;28;20980;-49
2023/10/27 12:48:33;;;;;;;2.20;1.27;;;12.70;91.00;;;;;;5016015;28;21020;-49
2023/10/27 12:51:03;;;;;;;2.90;1.30;;;12.70;91.20;;;;;;5020509;28;20425;-51
2023/10/27 12:53:31;;;;;;;2.67;1.20;;;12.70;91.20;;;;;;5021334;28;20596;-50
2023/10/27 12:55:59;;;;;;;2.07;1.20;;;12.70;91.20;;;;;;5021478;28;20472;-49
2023/10/27 12:58:28;;;;;;;1.90;1.00;;;12.70;91.40;;;;;;5035055;28;20558;-49
2023/10/27 13:00:57;;;;;;;2.60;1.00;;;12.70;91.30;;;;;;5023208;28;20435;-50
2023/10/27 13:03:27;;;;;;;1.83;1.10;;;12.70;90.80;;;;;;5033925;28;20483;-51